Time;durP1;ratioP1;P1;durP2;ratioP2;P2;SDS_P1;SDS_P2;PMS_P1;PMS_P2;Temp;Humidity;BMP_temperature;BMP_pressure;BME280_temperature;BME280_humidity;BME280_pressure;Samples;Min_cycle;Max_cycle;Signal;HPM_P1;HPM_P2
2021/11/13 00:02:01;;;;;;;9.10;4.20;;;;;;;-145.69;100.00;72596.50;5116321;28;20225;-80
2021/11/13 00:04:27;;;;;;;9.90;4.80;;;;;;;-145.69;100.00;72596.50;5115948;28;20225;-79
2021/11/13 00:06:54;;;;;;;13.27;4.67;;;;;;;-145.69;100.00;72584.56;5115864;28;20224;-80
2021/11/13 00:09:22;;;;;;;12.40;4.77;;;;;;;-145.69;100.00;72588.53;5115942;28;20197;-80
2021/11/13 00:11:48;;;;;;;10.20;4.33;;;;;;;-145.69;100.00;72596.50;5115504;28;20197;-79
2021/11/13 00:14:21;;;;;;;7.50;4.03;;;;;;;-145.69;100.00;72584.56;5115713;28;20205;-79
2021/11/13 00:16:47;;;;;;;14.00;4.93;;;;;;;-145.69;100.00;72586.53;5115919;28;20206;-79
2021/11/13 00:19:14;;;;;;;12.73;4.57;;;;;;;-145.69;100.00;72580.56;5115747;28;20205;-80
2021/11/13 00:21:40;;;;;;;13.63;5.70;;;;;;;-145.69;100.00;72576.59;5115668;28;20292;-80
2021/11/13 00:24:08;;;;;;;9.73;5.30;;;;;;;-145.69;100.00;72556.69;5115482;28;20687;-79
2021/11/13 00:26:35;;;;;;;9.57;4.80;;;;;;;-145.69;100.00;72572.59;5115765;28;20205;-79
2021/11/13 00:29:02;;;;;;;8.07;3.93;;;;;;;-145.69;100.00;72596.50;5115448;28;20193;-80
2021/11/13 00:31:30;;;;;;;15.03;5.97;;;;;;;-145.69;100.00;72590.53;5115213;28;20685;-79
2021/11/13 00:33:57;;;;;;;16.17;5.83;;;;;;;-145.69;100.00;72596.50;5115416;28;20250;-80
2021/11/13 00:36:23;;;;;;;14.67;6.47;;;;;;;-145.69;100.00;72584.56;5115280;28;20209;-80
2021/11/13 00:38:50;;;;;;;13.40;7.00;;;;;;;-145.69;100.00;72578.56;5115346;28;20258;-79
2021/11/13 00:41:25;;;;;;;15.77;6.50;;;;;;;-145.69;100.00;72562.66;5115085;28;20198;-80
2021/11/13 00:43:53;;;;;;;10.67;5.53;;;;;;;-145.69;100.00;72540.75;5114972;28;20564;-79
2021/11/13 00:46:20;;;;;;;11.80;5.90;;;;;;;-145.69;100.00;72536.78;5115110;28;20295;-80
2021/11/13 00:48:46;;;;;;;10.13;5.10;;;;;;;-145.69;100.00;72546.72;5115342;28;20533;-79
2021/11/13 00:51:13;;;;;;;13.70;4.80;;;;;;;-145.69;100.00;72540.75;5114875;28;20201;-79
2021/11/13 00:53:41;;;;;;;8.77;4.57;;;;;;;-145.69;100.00;72546.72;5115135;28;20201;-79
2021/11/13 00:56:08;;;;;;;10.43;4.60;;;;;;;-145.69;100.00;72552.69;5115113;28;20197;-80
2021/11/13 00:58:36;;;;;;;8.07;4.03;;;;;;;-145.69;100.00;72558.66;5114712;28;20582;-79
2021/11/13 01:01:04;;;;;;;4.90;2.80;;;;;;;-145.69;100.00;72556.69;5114710;28;20662;-80
2021/11/13 01:03:31;;;;;;;9.23;3.20;;;;;;;-145.69;100.00;72560.66;5114823;28;20205;-80
2021/11/13 01:05:58;;;;;;;5.75;3.05;;;;;;;-145.69;100.00;72560.66;5113347;28;20461;-80
2021/11/13 01:08:24;;;;;;;3.87;2.57;;;;;;;-145.69;100.00;72560.66;5114898;28;20201;-80
2021/11/13 01:10:51;;;;;;;4.90;2.53;;;;;;;-145.69;100.00;72550.72;5114629;28;20747;-80
2021/11/13 01:13:18;;;;;;;5.43;2.80;;;;;;;-145.69;100.00;72560.66;5114575;28;20556;-80
2021/11/13 01:15:45;;;;;;;6.23;2.50;;;;;;;-145.69;100.00;72556.69;5114587;28;20213;-80
2021/11/13 01:18:13;;;;;;;5.37;2.50;;;;;;;-145.69;100.00;72548.72;5114750;28;20201;-80
2021/11/13 01:20:39;;;;;;;3.63;2.30;;;;;;;-145.69;100.00;72540.75;5114236;28;20659;-80
2021/11/13 01:23:07;;;;;;;4.37;2.13;;;;;;;-145.69;100.00;72534.78;5117377;27;20299;-80
2021/11/13 01:25:36;;;;;;;3.17;2.27;;;;;;;-145.69;100.00;72524.84;5114195;28;20636;-79
2021/11/13 01:28:02;;;;;;;4.00;2.03;;;;;;;-145.69;100.00;72528.81;5114531;28;20197;-80
2021/11/13 01:30:29;;;;;;;5.97;2.33;;;;;;;-145.69;100.00;72524.84;5114296;28;20201;-80
2021/11/13 01:32:55;;;;;;;3.63;2.30;;;;;;;-145.69;100.00;72522.84;5113660;28;20193;-79
2021/11/13 01:35:24;;;;;;;5.23;2.27;;;;;;;-145.69;100.00;72504.94;5114133;28;20197;-80
2021/11/13 01:37:52;;;;;;;5.13;2.10;;;;;;;-145.69;100.00;72504.94;5113601;28;20193;-79
2021/11/13 01:40:22;;;;;;;3.37;1.83;;;;;;;-145.69;100.00;72508.91;5114156;28;20321;-79
2021/11/13 01:42:49;;;;;;;3.43;2.00;;;;;;;-145.69;100.00;72520.84;5114597;28;20492;-79
2021/11/13 01:45:17;;;;;;;10.90;2.60;;;;;;;-145.69;100.00;72524.84;5113762;28;20233;-79
2021/11/13 01:47:45;;;;;;;4.73;2.40;;;;;;;-145.69;100.00;72532.78;5113861;28;20670;-79
2021/11/13 01:50:15;;;;;;;6.40;2.23;;;;;;;-145.69;100.00;72524.84;5114168;28;20266;-79
2021/11/13 01:52:43;;;;;;;4.07;2.03;;;;;;;-145.69;100.00;72524.84;5113811;28;20213;-79
2021/11/13 01:55:14;;;;;;;3.57;2.03;;;;;;;-145.69;100.00;72524.84;5113955;28;20193;-80
2021/11/13 01:57:47;;;;;;;3.23;2.30;;;;;;;-145.69;100.00;72532.78;5113765;28;20226;-80
2021/11/13 02:00:19;;;;;;;3.93;2.40;;;;;;;-145.69;100.00;72536.78;5113828;28;20293;-80
2021/11/13 02:02:45;;;;;;;3.40;2.00;;;;;;;-145.69;100.00;72528.81;5113675;28;20258;-80
2021/11/13 02:05:12;;;;;;;3.63;1.80;;;;;;;-145.69;100.00;72534.78;5113862;28;20229;-80
2021/11/13 02:07:40;;;;;;;3.77;2.23;;;;;;;-145.69;100.00;72522.84;5114038;28;20700;-80
2021/11/13 02:10:11;;;;;;;3.70;2.10;;;;;;;-145.69;100.00;72508.91;5114009;28;20209;-79
2021/11/13 02:12:40;;;;;;;3.17;1.80;;;;;;;-145.69;100.00;72504.94;5113693;28;20208;-80
2021/11/13 02:15:09;;;;;;;3.13;1.80;;;;;;;-145.69;100.00;72500.94;5113930;28;20201;-80
2021/11/13 02:17:38;;;;;;;2.10;1.40;;;;;;;-145.69;100.00;72493.00;5113717;28;20208;-79
2021/11/13 02:20:30;;;;;;;2.70;1.50;;;;;;;-145.69;100.00;72516.88;5113516;28;20197;-80
2021/11/13 02:22:59;;;;;;;3.10;1.63;;;;;;;-145.69;100.00;72538.78;5113772;28;20591;-79
2021/11/13 02:25:30;;;;;;;2.60;1.47;;;;;;;-145.69;100.00;72542.75;5113443;28;20226;-80
2021/11/13 02:28:07;;;;;;;4.13;1.40;;;;;;;-145.69;100.00;72552.69;5113440;28;20661;-80
2021/11/13 02:30:33;;;;;;;1.47;1.13;;;;;;;-145.69;100.00;72532.78;5113337;28;20203;-80
2021/11/13 02:33:00;;;;;;;2.80;1.20;;;;;;;-145.69;92.19;72485.03;5113454;28;20209;-79
2021/11/13 02:35:31;;;;;;;1.70;1.10;;;;;;;-145.69;95.25;72487.00;5112861;28;20225;-79
2021/11/13 02:38:02;;;;;;;5.63;1.27;;;;;;;-145.69;95.82;72500.94;5113469;28;20209;-79
2021/11/13 02:40:28;;;;;;;5.23;1.13;;;;;;;-145.69;100.00;72530.81;5113323;28;20660;-79
2021/11/13 02:43:00;;;;;;;2.73;1.60;;;;;;;-145.69;100.00;72548.72;5113489;28;20198;-79
2021/11/13 02:45:28;;;;;;;3.00;1.50;;;;;;;-145.69;100.00;72558.66;5115379;28;20264;-80
2021/11/13 02:47:55;;;;;;;1.90;1.30;;;;;;;-145.69;100.00;72556.69;5116951;28;20216;-79
2021/11/13 02:50:24;;;;;;;1.73;1.10;;;;;;;-145.69;100.00;72600.47;5117641;28;20235;-80
2021/11/13 02:52:57;;;;;;;1.43;1.03;;;;;;;-145.69;100.00;72608.44;5117521;28;20732;-79
2021/11/13 02:55:26;;;;;;;3.33;1.20;;;;;;;-145.69;100.00;72540.75;5117459;28;20568;-79
2021/11/13 02:57:53;;;;;;;2.93;1.37;;;;;;;-145.69;100.00;72598.47;5117899;28;20193;-81
2021/11/13 03:00:24;;;;;;;3.23;1.50;;;;;;;-145.69;100.00;72636.31;5117566;28;20201;-80
2021/11/13 03:02:50;;;;;;;4.97;2.50;;;;;;;-145.69;100.00;72642.28;5116997;28;20201;-81
2021/11/13 03:05:25;;;;;;;4.40;2.50;;;;;;;-145.69;100.00;72660.19;5117015;28;20764;-81
2021/11/13 03:07:53;;;;;;;4.40;2.50;;;;;;;-145.69;100.00;72656.22;5116997;28;20204;-81
2021/11/13 03:10:27;;;;;;;3.83;2.40;;;;;;;-145.69;100.00;72664.16;5117045;28;20202;-82
2021/11/13 03:12:54;;;;;;;5.87;2.70;;;;;;;-145.69;100.00;72632.31;5116555;28;20722;-81
2021/11/13 03:15:24;;;;;;;4.97;2.70;;;;;;;-145.69;100.00;72640.28;5116861;28;20242;-82
2021/11/13 03:17:51;;;;;;;6.03;2.63;;;;;;;-145.69;100.00;72650.22;5116835;28;20668;-83
2021/11/13 03:20:21;;;;;;;4.00;2.10;;;;;;;-145.69;100.00;72650.22;5116865;28;20193;-83
2021/11/13 03:22:48;;;;;;;3.27;2.20;;;;;;;-145.69;100.00;72664.16;5116710;28;20204;-83
2021/11/13 03:25:19;;;;;;;6.07;2.27;;;;;;;-145.69;100.00;72676.09;5116468;28;20270;-81
2021/11/13 03:27:53;;;;;;;4.20;2.57;;;;;;;-145.69;100.00;72684.06;5133030;27;20205;-82
2021/11/13 03:30:23;;;;;;;3.37;1.93;;;;;;;-145.69;100.00;72707.97;5136200;27;20562;-82
2021/11/13 03:32:51;;;;;;;4.60;2.00;;;;;;;-145.69;100.00;72696.00;5137272;27;20280;-82
2021/11/13 03:35:26;;;;;;;3.80;2.23;;;;;;;-145.69;100.00;72709.94;5137012;27;20211;-82
2021/11/13 03:37:53;;;;;;;3.97;2.23;;;;;;;-145.69;100.00;72690.03;5137146;27;20562;-82
2021/11/13 03:40:20;;;;;;;4.97;2.37;;;;;;;-145.69;100.00;72676.09;5137228;27;20208;-81
2021/11/13 03:42:47;;;;;;;1.73;1.30;;;;;;;-145.69;100.00;72688.06;5136772;27;20204;-82
2021/11/13 03:45:14;;;;;;;7.37;1.97;;;;;;;-145.69;100.00;72711.94;5136966;27;20220;-81
2021/11/13 03:47:41;;;;;;;3.70;1.77;;;;;;;-145.69;100.00;72729.84;5136978;27;20201;-81
2021/11/13 03:50:09;;;;;;;6.80;1.83;;;;;;;-145.69;100.00;72731.84;5136497;27;20196;-81
2021/11/13 03:52:36;;;;;;;4.13;2.00;;;;;;;-145.69;100.00;72735.81;5136757;27;20278;-81
2021/11/13 03:55:02;;;;;;;4.83;2.13;;;;;;;-145.69;100.00;72719.91;5136437;27;20579;-82
2021/11/13 03:57:29;;;;;;;7.60;2.17;;;;;;;-145.69;100.00;72715.91;5136744;27;20197;-82
2021/11/13 03:59:55;;;;;;;6.37;2.20;;;;;;;-145.69;100.00;72707.97;5136265;27;20197;-83
2021/11/13 04:02:24;;;;;;;4.87;2.87;;;;;;;-145.69;100.00;72698.00;5136582;27;20567;-83
2021/11/13 04:04:50;;;;;;;7.20;2.60;;;;;;;-145.69;100.00;72672.13;5136496;27;22167;-80
2021/11/13 04:07:17;;;;;;;3.60;2.07;;;;;;;-145.69;100.00;72694.03;5135992;27;20208;-81
2021/11/13 04:09:46;;;;;;;6.13;2.60;;;;;;;-145.69;100.00;72696.00;5136713;27;20242;-82
2021/11/13 04:12:15;;;;;;;4.35;2.40;;;;;;;-145.69;100.00;72703.97;5136168;27;20438;-81
2021/11/13 04:14:45;;;;;;;5.53;2.53;;;;;;;-145.69;100.00;72700.00;5135651;27;20208;-81
2021/11/13 04:17:12;;;;;;;6.30;2.50;;;;;;;-145.69;100.00;72694.03;5136422;27;20249;-82
2021/11/13 04:19:40;;;;;;;3.97;2.13;;;;;;;-145.69;100.00;72707.97;5136230;27;20532;-81
2021/11/13 04:22:09;;;;;;;5.47;2.40;;;;;;;-145.69;100.00;72692.03;5136172;27;20208;-81
2021/11/13 04:24:35;;;;;;;4.67;2.80;;;;;;;-145.69;100.00;72642.28;5135917;27;20669;-81
2021/11/13 04:27:02;;;;;;;4.77;2.73;;;;;;;-145.69;100.00;72636.31;5135959;27;20269;-81
2021/11/13 04:29:29;;;;;;;5.37;2.20;;;;;;;-145.69;100.00;72656.22;5135988;27;20204;-81
2021/11/13 04:31:56;;;;;;;4.97;2.30;;;;;;;-145.69;100.00;72648.25;5135921;27;20196;-81
2021/11/13 04:34:25;;;;;;;8.07;2.43;;;;;;;-145.69;100.00;72636.31;5135835;27;20682;-81
2021/11/13 04:36:54;;;;;;;5.17;2.80;;;;;;;-145.69;100.00;72642.28;5135892;27;20213;-80
2021/11/13 04:39:23;;;;;;;5.13;2.53;;;;;;;-145.69;100.00;72640.28;5135859;27;20201;-81
2021/11/13 04:41:51;;;;;;;4.70;2.50;;;;;;;-145.69;100.00;72644.25;5135568;27;20197;-81
2021/11/13 04:44:18;;;;;;;4.40;2.53;;;;;;;-145.69;100.00;72632.31;5135813;27;20200;-82
2021/11/13 04:46:48;;;;;;;3.90;2.57;;;;;;;-145.69;100.00;72618.38;5135771;27;20702;-80
2021/11/13 04:49:15;;;;;;;3.57;2.00;;;;;;;-145.69;100.00;72616.41;5135928;27;20232;-80
2021/11/13 04:51:41;;;;;;;4.83;2.63;;;;;;;-145.69;100.00;72604.44;5135357;27;20205;-80
2021/11/13 04:54:09;;;;;;;8.83;3.03;;;;;;;-145.69;100.00;72584.56;5127164;27;20201;-80
2021/11/13 04:56:37;;;;;;;4.40;2.47;;;;;;;-145.69;100.00;72560.66;5103062;28;20206;-82
2021/11/13 04:59:04;;;;;;;4.67;2.43;;;;;;;-145.69;100.00;72520.84;5096388;28;20656;-80
2021/11/13 05:01:33;;;;;;;3.83;2.33;;;;;;;-145.69;100.00;72536.78;5094416;28;20805;-81
2021/11/13 05:04:02;;;;;;;3.33;2.03;;;;;;;-145.69;100.00;72540.75;5094632;28;20209;-81
2021/11/13 05:06:29;;;;;;;4.63;2.50;;;;;;;-145.69;100.00;72542.75;5094090;28;20699;-81
2021/11/13 05:08:56;;;;;;;4.47;2.30;;;;;;;-145.69;100.00;72536.78;5093489;28;20197;-81
2021/11/13 05:11:24;;;;;;;3.87;2.53;;;;;;;-145.69;100.00;72532.78;5094238;28;20198;-80
2021/11/13 05:13:51;;;;;;;3.67;2.30;;;;;;;-145.69;100.00;72532.78;5094165;28;20194;-81
2021/11/13 05:16:17;;;;;;;4.87;2.53;;;;;;;-145.69;100.00;72524.84;5094110;28;20688;-82
2021/11/13 05:18:46;;;;;;;4.03;1.97;;;;;;;-145.69;100.00;72504.94;5094291;28;20202;-81
2021/11/13 05:21:13;;;;;;;7.27;2.50;;;;;;;-145.69;100.00;72477.06;5093854;28;20679;-81
2021/11/13 05:23:39;;;;;;;4.27;2.40;;;;;;;-145.69;100.00;72445.22;5093213;28;20692;-83
2021/11/13 05:26:06;;;;;;;4.33;2.37;;;;;;;-145.69;100.00;72445.22;5093877;28;20771;-82
2021/11/13 05:28:45;;;;;;;4.10;2.00;;;;;;;-145.69;100.00;72423.31;5094090;28;20206;-81
2021/11/13 05:31:13;;;;;;;4.07;2.40;;;;;;;-145.69;100.00;72403.41;5093831;28;20240;-80
2021/11/13 05:33:43;;;;;;;7.23;2.63;;;;;;;-145.69;100.00;72385.50;5094027;28;20198;-80
2021/11/13 05:36:09;;;;;;;6.97;2.50;;;;;;;-145.69;100.00;72383.53;5094084;28;20202;-80
2021/11/13 05:38:36;;;;;;;5.57;2.63;;;;;;;-145.69;100.00;72377.53;5093896;28;20205;-80
2021/11/13 05:41:03;;;;;;;4.00;2.30;;;;;;;-145.69;100.00;72379.53;5093722;28;20198;-80
2021/11/13 05:43:29;;;;;;;4.07;2.27;;;;;;;-145.69;100.00;72361.63;5093816;28;20198;-81
2021/11/13 05:46:01;;;;;;;4.20;2.30;;;;;;;-145.69;100.00;72357.66;5093341;28;20232;-80
2021/11/13 05:48:30;;;;;;;4.63;1.87;;;;;;;-145.69;100.00;72377.53;5093743;28;20683;-81
2021/11/13 05:50:59;;;;;;;5.07;2.00;;;;;;;-145.69;100.00;72401.44;5093769;28;20198;-81
2021/11/13 05:53:25;;;;;;;5.50;1.93;;;;;;;-145.69;100.00;72401.44;5093487;28;20644;-81
2021/11/13 05:55:52;;;;;;;4.67;1.97;;;;;;;-145.69;100.00;72409.38;5093565;28;20228;-81
2021/11/13 05:58:21;;;;;;;5.30;2.40;;;;;;;-145.69;100.00;72401.44;5093605;28;20246;-81
2021/11/13 06:00:48;;;;;;;3.80;2.10;;;;;;;-145.69;100.00;72383.53;5093487;28;20645;-81
2021/11/13 06:03:16;;;;;;;4.63;2.20;;;;;;;-145.69;100.00;72379.53;5093262;28;20606;-81
2021/11/13 06:05:43;;;;;;;4.27;2.10;;;;;;;-145.69;100.00;72361.63;5093211;28;20222;-81
2021/11/13 06:08:10;;;;;;;3.80;2.03;;;;;;;-145.69;100.00;72325.81;5093138;28;20656;-81
2021/11/13 06:10:37;;;;;;;5.13;2.47;;;;;;;-145.69;100.00;72333.75;5093144;28;20202;-81
2021/11/13 06:13:07;;;;;;;3.87;2.50;;;;;;;-145.69;100.00;72327.78;5093301;28;20251;-82
2021/11/13 06:15:33;;;;;;;4.37;2.07;;;;;;;-145.69;100.00;72335.75;5092952;28;20202;-82
2021/11/13 06:18:00;;;;;;;5.20;2.50;;;;;;;-145.69;100.00;72313.84;5092698;28;20201;-82
2021/11/13 06:20:31;;;;;;;3.17;1.80;;;;;;;-145.69;100.00;72309.88;5092778;28;20206;-82
2021/11/13 06:22:59;;;;;;;3.67;2.10;;;;;;;-145.69;100.00;72311.88;5092961;28;20209;-82
2021/11/13 06:25:26;;;;;;;4.20;1.90;;;;;;;-145.69;100.00;72301.91;5093151;28;20247;-82
2021/11/13 06:27:53;;;;;;;3.60;2.00;;;;;;;-145.69;100.00;72266.09;5093311;28;20202;-82
2021/11/13 06:30:19;;;;;;;3.53;2.20;;;;;;;-145.69;100.00;72262.09;5093090;28;20205;-82
2021/11/13 06:32:47;;;;;;;2.53;1.73;;;;;;;-145.69;87.67;72224.28;5093230;28;20198;-82
2021/11/13 06:35:21;;;;;;;3.95;2.15;;;;;;;-145.69;90.87;72204.38;5091477;28;20441;-82
2021/11/13 06:37:54;;;;;;;3.57;2.30;;;;;;;-145.69;93.46;72190.47;5093093;28;20247;-82
2021/11/13 06:40:24;;;;;;;2.83;1.80;;;;;;;-145.69;94.45;72202.41;5092551;28;20289;-82
2021/11/13 06:42:52;;;;;;;3.23;2.07;;;;;;;-145.69;92.58;72210.38;5092922;28;20212;-83
2021/11/13 06:45:19;;;;;;;3.80;1.73;;;;;;;-145.69;86.56;72188.47;5092916;28;20202;-83
2021/11/13 06:47:45;;;;;;;7.57;2.40;;;;;;;-145.69;94.82;72196.44;5092651;28;20331;-82
2021/11/13 06:50:15;;;;;;;3.50;2.10;;;;;;;-145.69;98.74;72230.25;5092623;28;20603;-82
2021/11/13 06:52:42;;;;;;;2.30;1.50;;;;;;;-145.69;97.96;72248.19;5092635;28;20530;-82
2021/11/13 06:55:12;;;;;;;2.63;1.80;;;;;;;-145.69;99.49;72254.16;5092788;28;20656;-82
2021/11/13 06:57:42;;;;;;;3.57;2.00;;;;;;;-145.69;98.66;72248.19;5093319;28;20296;-82
2021/11/13 07:00:11;;;;;;;3.33;1.93;;;;;;;-145.69;97.20;72246.19;5092489;28;20206;-82
2021/11/13 07:02:38;;;;;;;3.50;1.80;;;;;;;-145.69;91.93;72234.25;5092829;28;20202;-81
2021/11/13 07:05:05;;;;;;;3.20;1.63;;;;;;;-145.69;90.77;72224.28;5092574;28;20614;-81
2021/11/13 07:07:33;;;;;;;3.93;1.90;;;;;;;-145.69;97.65;72230.25;5094602;28;20233;-81
2021/11/13 07:09:59;;;;;;;3.07;1.90;;;;;;;-145.69;92.72;72234.25;5092793;28;20632;-81
2021/11/13 07:12:28;;;;;;;2.93;1.93;;;;;;;-145.69;97.29;72232.25;5092652;28;20225;-81
2021/11/13 07:14:54;;;;;;;3.30;1.70;;;;;;;-145.69;96.18;72226.28;5092978;28;20238;-81
2021/11/13 07:17:21;;;;;;;3.53;1.80;;;;;;;-145.69;100.00;72230.25;5092679;28;20202;-81
2021/11/13 07:19:48;;;;;;;4.20;1.90;;;;;;;-145.69;100.00;72234.25;5092850;28;20556;-82
2021/11/13 07:22:15;;;;;;;3.97;1.92;;;;;;;-145.69;100.00;72230.25;5092590;28;20412;-81
2021/11/13 07:24:42;;;;;;;4.03;1.60;;;;;;;-145.69;100.00;72234.25;5092498;28;20719;-82
2021/11/13 07:27:09;;;;;;;3.93;1.97;;;;;;;-145.69;100.00;72232.25;5092139;28;20233;-81
2021/11/13 07:29:44;;;;;;;4.50;2.07;;;;;;;-145.69;100.00;72232.25;5092738;28;20225;-82
2021/11/13 07:32:11;;;;;;;8.10;1.77;;;;;;;-145.69;94.25;72220.31;5096133;28;20244;-81
2021/11/13 07:34:37;;;;;;;4.77;2.00;;;;;;;-145.69;100.00;72212.34;5096227;28;20194;-82
2021/11/13 07:37:05;;;;;;;3.30;2.00;;;;;;;-145.69;100.00;72202.41;5095780;28;20656;-82
2021/11/13 07:39:31;;;;;;;2.70;1.70;;;;;;;-145.69;93.34;72174.53;5096178;28;20656;-82
2021/11/13 07:41:58;;;;;;;21.57;7.07;;;;;;;-145.69;98.17;72162.59;5096295;28;20205;-82
2021/11/13 07:44:24;;;;;;;69.57;20.87;;;;;;;-145.69;100.00;72158.63;5096022;28;20198;-82
2021/11/13 07:46:55;;;;;;;43.67;11.70;;;;;;;-145.69;100.00;72150.66;5095445;28;20275;-81
2021/11/13 07:49:21;;;;;;;162.60;45.17;;;;;;;-145.69;95.49;72138.72;5096053;28;20240;-81
2021/11/13 07:51:48;;;;;;;14.37;4.63;;;;;;;-145.69;100.00;72146.69;5095826;28;20656;-81
2021/11/13 07:54:14;;;;;;;4.30;2.03;;;;;;;-145.69;100.00;72142.69;5095778;28;20198;-83
2021/11/13 07:56:41;;;;;;;2.60;1.53;;;;;;;-145.69;96.58;72134.72;5095602;28;20213;-84
2021/11/13 07:59:07;;;;;;;3.10;1.70;;;;;;;-145.69;94.50;72114.81;5095945;28;20285;-83
2021/11/13 08:01:34;;;;;;;3.23;1.80;;;;;;;-145.69;91.77;72100.91;5095785;28;20209;-83
2021/11/13 08:04:02;;;;;;;2.70;1.63;;;;;;;-145.69;92.97;72090.94;5095578;28;20569;-83
2021/11/13 08:06:29;;;;;;;2.87;1.77;;;;;;;-145.69;94.68;72086.97;5095215;28;20226;-83
2021/11/13 08:08:56;;;;;;;2.27;1.80;;;;;;;-145.69;95.91;72094.94;5095574;28;20206;-83
2021/11/13 08:11:22;;;;;;;3.17;1.80;;;;;;;-145.69;96.60;72094.94;5095592;28;20198;-83
2021/11/13 08:13:49;;;;;;;3.47;1.80;;;;;;;-145.69;93.18;72082.97;5095227;28;20198;-84
2021/11/13 08:16:15;;;;;;;2.17;1.60;;;;;;;-145.69;97.77;72077.00;5095459;28;20202;-84
2021/11/13 08:18:42;;;;;;;4.13;2.07;;;;;;;-145.69;94.88;72047.16;5095115;28;20198;-83
2021/11/13 08:21:11;;;;;;;4.17;1.70;;;;;;;-145.69;85.36;72035.22;5094977;28;20560;-83
2021/11/13 08:23:38;;;;;;;5.73;1.90;;;;;;;-145.69;84.93;72011.34;5095070;28;20238;-83
2021/11/13 08:26:06;;;;;;;4.13;2.30;;;;;;;-145.69;89.03;71983.47;5095226;28;20201;-83
2021/11/13 08:28:32;;;;;;;3.70;1.80;;;;;;;-145.69;90.72;71937.69;5095105;28;20198;-83
2021/11/13 08:30:59;;;;;;;3.70;2.10;;;;;;;-145.69;91.08;71895.91;5095259;28;20202;-82
2021/11/13 08:33:28;;;;;;;3.43;1.90;;;;;;;-145.69;90.88;71844.16;5094222;28;20292;-80
2021/11/13 08:35:55;;;;;;;4.73;2.63;;;;;;;-145.69;89.38;71812.31;5094716;28;20714;-80
2021/11/13 08:38:24;;;;;;;4.20;2.50;;;;;;;-145.69;87.45;71760.59;5095001;28;20206;-80
2021/11/13 08:40:53;;;;;;;4.83;2.47;;;;;;;-145.69;82.23;71766.56;5094589;28;20210;-80
2021/11/13 08:43:21;;;;;;;5.63;3.20;;;;;;;-145.69;80.32;71776.50;5094527;28;20213;-79
2021/11/13 08:45:49;;;;;;;3.80;2.03;;;;;;;-145.69;77.45;71770.53;5094119;28;20262;-77
2021/11/13 08:48:16;;;;;;;15.70;9.80;;;;;;;-145.69;74.57;71780.50;5095707;28;20251;-76
2021/11/13 08:50:44;;;;;;;5.00;2.70;;;;;;;-145.69;73.69;71768.53;5092822;28;20195;-78
2021/11/13 08:53:11;;;;;;;4.90;2.67;;;;;;;-145.69;80.44;71766.56;5094090;28;20225;-77
2021/11/13 08:55:41;;;;;;;11.87;6.57;;;;;;;-145.69;75.93;71730.72;5094713;28;20599;-77
2021/11/13 08:58:09;;;;;;;18.10;10.07;;;;;;;-145.69;77.62;71708.84;5094965;28;20560;-77
2021/11/13 09:00:38;;;;;;;5.43;2.87;;;;;;;-145.69;78.48;71720.78;5094877;28;20198;-77
2021/11/13 09:03:08;;;;;;;9.33;2.97;;;;;;;-145.69;80.81;71746.66;5097230;28;20198;-78
2021/11/13 09:05:34;;;;;;;4.60;2.50;;;;;;;-145.69;82.98;71756.59;5094823;28;20206;-78
2021/11/13 09:08:01;;;;;;;6.50;2.30;;;;;;;-145.69;81.52;71748.66;5094135;28;20638;-77
2021/11/13 09:10:28;;;;;;;11.80;2.17;;;;;;;-145.69;80.69;71722.78;5094489;28;20226;-77
2021/11/13 09:12:57;;;;;;;6.50;2.90;;;;;;;-145.69;79.55;71726.75;5094315;28;20202;-77
2021/11/13 09:15:27;;;;;;;5.07;2.43;;;;;;;-145.69;77.91;71696.91;5094184;28;20202;-77
2021/11/13 09:17:54;;;;;;;4.03;2.00;;;;;;;-145.69;76.32;71677.00;5094282;28;20688;-76
2021/11/13 09:20:21;;;;;;;4.37;2.20;;;;;;;-145.69;79.04;71667.06;5094102;28;20205;-78
2021/11/13 09:22:48;;;;;;;4.33;2.23;;;;;;;-145.69;79.10;71688.94;5094166;28;20200;-77
2021/11/13 09:25:16;;;;;;;9.00;2.20;;;;;;;-145.69;79.21;71712.81;5094280;28;20202;-78
2021/11/13 09:27:44;;;;;;;3.27;2.00;;;;;;;-145.69;77.45;71714.81;5094187;28;20234;-78
2021/11/13 09:30:15;;;;;;;4.93;2.00;;;;;;;-145.69;78.64;71694.91;5093928;28;20202;-77
2021/11/13 09:32:43;;;;;;;2.87;1.93;;;;;;;-145.69;76.96;71708.84;5093951;28;20653;-77
2021/11/13 09:35:10;;;;;;;6.60;2.00;;;;;;;-145.69;79.44;71714.81;5094291;28;20198;-77
2021/11/13 09:37:36;;;;;;;8.73;2.30;;;;;;;-145.69;80.62;71724.75;5093973;28;20627;-77
2021/11/13 09:40:04;;;;;;;3.77;2.23;;;;;;;-145.69;79.95;71716.81;5093720;28;20652;-77
2021/11/13 09:42:34;;;;;;;8.70;2.60;;;;;;;-145.69;79.54;71686.97;5093664;28;20202;-77
2021/11/13 09:45:01;;;;;;;7.93;2.50;;;;;;;-145.69;79.14;71690.94;5093999;28;20206;-77
2021/11/13 09:47:34;;;;;;;4.30;2.10;;;;;;;-145.69;78.99;71669.03;5093451;28;20229;-78
2021/11/13 09:50:04;;;;;;;4.03;2.30;;;;;;;-145.69;78.01;71617.31;5093849;28;20205;-76
2021/11/13 09:52:31;;;;;;;4.93;2.03;;;;;;;-145.69;78.18;71613.31;5093808;28;20202;-77
2021/11/13 09:54:59;;;;;;;4.57;2.53;;;;;;;-145.69;79.21;71581.50;5092876;28;20251;-77
2021/11/13 09:57:26;;;;;;;6.07;2.60;;;;;;;-145.69;75.08;71543.69;5093743;28;20202;-78
2021/11/13 09:59:55;;;;;;;5.57;2.57;;;;;;;-145.69;73.47;71565.56;5093387;28;20255;-76
2021/11/13 10:02:22;;;;;;;4.27;2.60;;;;;;;-145.69;75.78;71555.63;5093513;28;20202;-76
2021/11/13 10:04:50;;;;;;;2.87;2.03;;;;;;;-145.69;75.18;71585.47;5093416;28;20197;-77
2021/11/13 10:07:16;;;;;;;5.10;2.77;;;;;;;-145.69;76.73;71613.31;5093306;28;20222;-76
2021/11/13 10:09:48;;;;;;;9.43;2.90;;;;;;;-145.69;79.79;71621.28;5092542;28;20198;-76
2021/11/13 10:12:20;;;;;;;6.43;2.90;;;;;;;-145.69;78.45;71595.41;5100650;28;20656;-77
2021/11/13 10:14:47;;;;;;;8.57;2.90;;;;;;;-145.69;77.74;71605.38;5113630;28;20204;-76
2021/11/13 10:17:20;;;;;;;73.37;31.57;;;;;;;-145.69;74.24;71555.63;5113586;28;20202;-76
2021/11/13 10:19:47;;;;;;;108.10;39.33;;;;;;;-145.69;69.71;71527.75;5113512;28;20197;-76
2021/11/13 10:22:16;;;;;;;13.60;6.28;;;;;;;-145.69;70.60;71509.84;5113375;28;20204;-77
2021/11/13 10:24:47;;;;;;;4.13;2.42;;;;;;;-145.69;70.21;71527.75;5113518;28;20235;-76
2021/11/13 10:27:18;;;;;;;4.32;2.60;;;;;;;-145.69;69.13;71472.03;5113487;28;20594;-77
2021/11/13 10:29:47;;;;;;;12.30;4.05;;;;;;;-145.69;70.38;71470.06;5113496;28;20730;-77
2021/11/13 10:32:16;;;;;;;6.95;2.88;;;;;;;-145.69;69.69;71478.00;5112999;28;20193;-77
2021/11/13 10:34:47;;;;;;;7.07;3.80;;;;;;;-145.69;69.34;71440.19;5113201;28;20201;-77
2021/11/13 10:37:19;;;;;;;51.20;16.20;;;;;;;-145.69;69.61;71462.09;5113440;28;20205;-77
2021/11/13 10:39:47;;;;;;;10.75;4.85;;;;;;;-145.69;67.89;71424.28;5113277;28;20197;-77
2021/11/13 10:42:15;;;;;;;10.30;2.60;;;;;;;-145.69;68.68;71432.25;5113233;28;20291;-77
2021/11/13 10:44:47;;;;;;;7.22;3.60;;;;;;;-145.69;72.29;71444.19;5113020;28;20197;-76
2021/11/13 10:47:17;;;;;;;5.25;2.10;;;;;;;-145.69;71.68;71420.31;5113011;28;20225;-77
2021/11/13 10:49:44;;;;;;;4.30;2.13;;;;;;;-145.69;74.78;71418.31;5112928;28;20207;-77
2021/11/13 10:52:12;;;;;;;4.28;2.42;;;;;;;-145.69;76.25;71442.19;5113068;28;20247;-77
2021/11/13 10:54:43;;;;;;;4.60;2.47;;;;;;;-145.69;74.99;71466.06;5113405;28;20197;-77
2021/11/13 10:57:10;;;;;;;4.07;2.37;;;;;;;-145.69;74.47;71456.13;5113282;28;20197;-77
2021/11/13 10:59:40;;;;;;;6.07;2.23;;;;;;;-145.69;76.63;71450.16;5112896;28;20683;-77
2021/11/13 11:02:10;;;;;;;6.53;2.90;;;;;;;-145.69;76.34;71440.19;5112560;28;20242;-77
2021/11/13 11:04:38;;;;;;;6.17;2.33;;;;;;;-145.69;79.32;71456.13;5095131;28;20198;-76
2021/11/13 11:07:14;;;;;;;5.60;2.30;;;;;;;-145.69;78.52;71438.22;5096184;28;20565;-76
2021/11/13 11:09:44;;;;;;;8.10;2.77;;;;;;;-145.69;76.65;71436.22;5096708;28;20198;-76
2021/11/13 11:12:13;;;;;;;3.03;2.15;;;;;;;-145.69;79.75;71474.03;5096475;28;20198;-77
2021/11/13 11:14:41;;;;;;;6.80;2.13;;;;;;;-145.69;77.74;71474.03;5096783;28;20202;-76
2021/11/13 11:17:15;;;;;;;7.00;2.80;;;;;;;-145.69;79.81;71474.03;5095884;28;20560;-77